createdAt,value
2017-11-24T09:55:15.711Z,4164
2017-11-24T09:56:29.100Z,3668
2017-11-24T09:56:57.705Z,3560
2017-11-24T09:57:26.396Z,3484
2017-11-24T09:57:54.921Z,3396
2017-11-24T09:58:23.327Z,3320
2017-11-24T09:58:52.021Z,3300
2017-11-24T09:59:20.644Z,3348
2017-11-24T09:59:49.141Z,3368
2017-11-24T10:00:17.777Z,3344
2017-11-24T10:00:46.425Z,3324
2017-11-24T10:01:14.945Z,3348
2017-11-24T10:01:43.487Z,3416
2017-11-24T10:02:12.011Z,3448
2017-11-24T10:02:40.565Z,3416
2017-11-24T10:03:08.996Z,3396
2017-11-24T10:03:37.634Z,3376
2017-11-24T10:04:06.168Z,3356
2017-11-24T10:04:34.685Z,3360
2017-11-24T10:05:03.338Z,3396
2017-11-24T10:05:31.682Z,3440
2017-11-24T10:06:00.123Z,3468
2017-11-24T10:06:28.732Z,3460
2017-11-24T10:06:57.367Z,3392
2017-11-24T10:07:26.046Z,3336
2017-11-24T10:07:54.420Z,3312
2017-11-24T10:08:22.908Z,3296
2017-11-24T10:08:51.541Z,3288
2017-11-24T10:09:19.977Z,3304
2017-11-24T10:09:48.591Z,3368
2017-11-24T10:10:17.332Z,3432
2017-11-24T10:10:45.770Z,3496
2017-11-24T10:11:14.265Z,3572
2017-11-24T10:11:42.848Z,3620
2017-11-24T10:12:11.364Z,3612
2017-11-24T10:12:39.771Z,3620
2017-11-24T10:13:08.290Z,3600
2017-11-24T10:13:36.924Z,3572
2017-11-24T10:14:05.128Z,3540
2017-11-24T10:14:33.655Z,3516
2017-11-24T10:15:02.108Z,3532
2017-11-24T10:15:30.574Z,3576
2017-11-24T10:15:59.132Z,3632
2017-11-24T10:16:27.343Z,3660
2017-11-24T10:16:56.213Z,3628
2017-11-24T10:17:24.810Z,3532
2017-11-24T10:17:53.423Z,3448
2017-11-24T10:18:21.977Z,3408
2017-11-24T10:18:50.595Z,3408
2017-11-24T10:19:19.142Z,3428
2017-11-24T10:19:47.549Z,3444
2017-11-24T10:20:16.167Z,3424
2017-11-24T10:20:44.687Z,3424
2017-11-24T10:21:13.295Z,3460
2017-11-24T10:21:41.797Z,3552
2017-11-24T10:22:10.189Z,3692
2017-11-24T10:22:38.702Z,3836
2017-11-24T10:23:07.310Z,3948
2017-11-24T10:23:35.915Z,4012
2017-11-24T10:24:04.449Z,4024
2017-11-24T10:24:33.080Z,4052
2017-11-24T10:25:01.609Z,4092
2017-11-24T10:25:30.240Z,4160
2017-11-24T10:25:58.730Z,4224
2017-11-24T10:26:27.212Z,4284
2017-11-24T10:26:55.825Z,4328
2017-11-24T10:27:24.299Z,4372
2017-11-24T10:27:52.696Z,4404
2017-11-24T10:28:21.304Z,4416
2017-11-24T10:28:49.893Z,4428
2017-11-24T10:29:18.367Z,4452
2017-11-24T10:29:46.802Z,4524
2017-11-24T10:30:15.099Z,4672
2017-11-24T10:30:43.403Z,4844
2017-11-24T10:31:11.798Z,4976
2017-11-24T10:31:40.427Z,5048
2017-11-24T10:32:08.777Z,5000
2017-11-24T10:32:37.266Z,4860
2017-11-24T10:33:05.875Z,4680
2017-11-24T10:33:34.502Z,4536
2017-11-24T10:34:03.125Z,4484
2017-11-24T10:34:31.725Z,4480
2017-11-24T10:35:00.399Z,4476
2017-11-24T10:35:28.992Z,4460
2017-11-24T10:35:57.851Z,4420
2017-11-24T10:36:26.716Z,4408
2017-11-24T10:36:55.377Z,4456
2017-11-24T10:37:24.008Z,4584
2017-11-24T10:37:52.539Z,4724
2017-11-24T10:38:21.153Z,4876
2017-11-24T10:38:49.649Z,5004
2017-11-24T10:39:18.155Z,5020
2017-11-24T10:39:46.759Z,4924
2017-11-24T10:40:15.251Z,4840
2017-11-24T10:40:43.987Z,4828
2017-11-24T10:41:12.538Z,4888
2017-11-24T10:41:40.971Z,4928
2017-11-24T10:42:10.221Z,4952
2017-11-24T10:42:38.682Z,5016
2017-11-24T10:43:07.302Z,5168
2017-11-24T10:43:35.809Z,5320
2017-11-24T10:44:04.428Z,5432
2017-11-24T10:44:33.074Z,5516
2017-11-24T10:45:01.716Z,5584
2017-11-24T10:45:30.331Z,5596
2017-11-24T10:45:58.957Z,5680
2017-11-24T10:46:27.553Z,5896
2017-11-24T10:46:56.089Z,6176
2017-11-24T10:47:24.613Z,6388
2017-11-24T10:47:53.153Z,6376
2017-11-24T10:48:21.793Z,6088
2017-11-24T10:48:50.422Z,5728
2017-11-24T10:49:18.932Z,5464
2017-11-24T10:49:47.378Z,5332
2017-11-24T10:50:15.720Z,5408
2017-11-24T10:51:08.285Z,5640
2017-11-24T10:51:36.830Z,5700
2017-11-24T10:52:05.376Z,5712
2017-11-24T10:52:33.812Z,5824
2017-11-24T10:53:03.078Z,5916
2017-11-24T10:53:31.590Z,5940
2017-11-24T10:54:00.216Z,5916
2017-11-24T10:54:28.757Z,5988
2017-11-24T10:54:57.282Z,6200
2017-11-24T10:55:25.869Z,6388
2017-11-24T10:55:54.524Z,6604
2017-11-24T10:56:23.078Z,6832
2017-11-24T10:56:51.625Z,7048
2017-11-24T10:57:20.239Z,7292
2017-11-24T10:57:48.899Z,7444
2017-11-24T10:58:17.551Z,7480
2017-11-24T10:58:46.167Z,7472
2017-11-24T10:59:14.769Z,7484
2017-11-24T10:59:43.405Z,7348
2017-11-24T11:00:12.155Z,7144
2017-11-24T11:00:40.590Z,7032
2017-11-24T11:01:09.108Z,7116
2017-11-24T11:01:37.610Z,7388
2017-11-24T11:02:06.045Z,7692
2017-11-24T11:02:34.476Z,7824
2017-11-24T11:03:03.007Z,7924
2017-11-24T11:03:31.522Z,8052
2017-11-24T11:03:59.970Z,8108
2017-11-24T11:04:28.611Z,8172
2017-11-24T11:04:57.114Z,8260
2017-11-24T11:05:25.701Z,8500
2017-11-24T11:05:54.190Z,9048
2017-11-24T11:06:22.788Z,9668
2017-11-24T11:06:51.385Z,9964
2017-11-24T11:07:19.930Z,9748
2017-11-24T11:07:48.436Z,9336
2017-11-24T11:08:16.840Z,8984
2017-11-24T11:08:45.430Z,8832
2017-11-24T11:09:13.953Z,8868
2017-11-24T11:09:42.482Z,8988
2017-11-24T11:10:11.019Z,8944
2017-11-24T11:10:39.705Z,8856
2017-11-24T11:11:08.207Z,8736
2017-11-24T11:11:36.854Z,8520
2017-11-24T11:12:05.821Z,8244
2017-11-24T11:12:34.553Z,8084
2017-11-24T11:13:03.921Z,8104
2017-11-24T11:13:32.410Z,8224
2017-11-24T11:14:00.955Z,8396
2017-11-24T11:14:29.474Z,8612
2017-11-24T11:14:58.126Z,8852
2017-11-24T11:15:26.811Z,9120
2017-11-24T11:15:55.502Z,9308
2017-11-24T11:16:23.910Z,9384
2017-11-24T11:16:52.400Z,9340
2017-11-24T11:17:20.955Z,9164
2017-11-24T11:17:49.473Z,8964
2017-11-24T11:18:18.113Z,8916
2017-11-24T11:18:46.614Z,9012
2017-11-24T11:19:15.147Z,9132
2017-11-24T11:19:43.670Z,9252
2017-11-24T11:20:12.334Z,9492
2017-11-24T11:20:40.799Z,9904
2017-11-24T11:21:09.308Z,10260
2017-11-24T11:21:37.827Z,10376
2017-11-24T11:22:06.382Z,10408
2017-11-24T11:22:34.757Z,10484
2017-11-24T11:23:03.359Z,10612
2017-11-24T11:23:31.885Z,10732
2017-11-24T11:24:00.528Z,10592
2017-11-24T11:24:29.015Z,10224
2017-11-24T11:24:57.647Z,9824
2017-11-24T11:25:26.112Z,9556
2017-11-24T11:25:54.728Z,9488
2017-11-24T11:26:23.268Z,9684
2017-11-24T11:26:51.903Z,10132
2017-11-24T11:27:20.453Z,10728
2017-11-24T11:27:49.030Z,11292
2017-11-24T11:28:17.532Z,11776
2017-11-24T11:28:46.102Z,12440
2017-11-24T11:29:14.520Z,13236
2017-11-24T11:29:43.067Z,13328
2017-11-24T11:30:11.576Z,12948
2017-11-24T11:30:40.127Z,12504
2017-11-24T11:31:08.738Z,12412
2017-11-24T11:31:37.328Z,13236
2017-11-24T11:32:05.846Z,15816
2017-11-24T11:32:34.374Z,18720
2017-11-24T11:33:03.095Z,18080
2017-11-24T11:33:31.710Z,17184
2017-11-24T11:34:00.510Z,15596
2017-11-24T11:34:29.022Z,14060
2017-11-24T11:34:57.678Z,13080
2017-11-24T11:35:26.086Z,12668
2017-11-24T11:35:54.700Z,12704
2017-11-24T11:36:23.381Z,12888
2017-11-24T11:36:51.680Z,13120
2017-11-24T11:37:20.212Z,13556
2017-11-24T11:37:48.816Z,14100
2017-11-24T11:38:17.478Z,14516
2017-11-24T11:38:46.119Z,15180
2017-11-24T11:39:14.716Z,15684
2017-11-24T11:39:43.232Z,15896
2017-11-24T11:40:11.857Z,15320
2017-11-24T11:40:40.361Z,14768
2017-11-24T11:41:08.886Z,14600
2017-11-24T11:41:37.327Z,14924
2017-11-24T11:42:05.805Z,15304
2017-11-24T11:42:34.307Z,15432
2017-11-24T11:43:02.651Z,14908
2017-11-24T11:43:31.305Z,14416
2017-11-24T11:43:59.875Z,13952
2017-11-24T11:44:28.440Z,13548
2017-11-24T11:44:56.975Z,13396
2017-11-24T11:45:25.395Z,13360
2017-11-24T11:45:54.036Z,13344
2017-11-24T11:46:22.901Z,13424
2017-11-24T11:46:51.588Z,13772
2017-11-24T11:47:20.274Z,14416
2017-11-24T11:47:48.789Z,14960
2017-11-24T11:48:17.298Z,15340
2017-11-24T11:48:45.939Z,15356
2017-11-24T11:49:14.557Z,15328
2017-11-24T11:49:43.177Z,15144
2017-11-24T11:50:11.784Z,14896
2017-11-24T11:50:40.199Z,14808
2017-11-24T11:51:08.762Z,14788
2017-11-24T11:51:37.269Z,14900
2017-11-24T11:52:05.840Z,15780
2017-11-24T11:52:34.342Z,16992
2017-11-24T11:53:03.027Z,17088
2017-11-24T11:53:31.687Z,15720
2017-11-24T11:54:00.031Z,15040
2017-11-24T11:54:28.651Z,14704
2017-11-24T11:54:57.289Z,14504
2017-11-24T11:55:25.927Z,14392
2017-11-24T11:55:54.243Z,14372
2017-11-24T11:56:22.945Z,14440
2017-11-24T11:56:51.453Z,14596
2017-11-24T11:57:20.230Z,14820
2017-11-24T11:57:48.871Z,15080
2017-11-24T11:58:17.387Z,15372
2017-11-24T11:58:46.159Z,16000
2017-11-24T11:59:14.842Z,17632
2017-11-24T11:59:46.684Z,17952
2017-11-24T12:00:15.116Z,18112
2017-11-24T12:00:43.528Z,18336
2017-11-24T12:01:12.079Z,19072
2017-11-24T12:01:40.625Z,20352
2017-11-24T12:02:09.235Z,24576
2017-11-24T12:02:37.948Z,32576
2017-11-24T12:03:06.598Z,30368
2017-11-24T12:03:35.427Z,21792
2017-11-24T12:04:04.014Z,19488
2017-11-24T12:04:32.356Z,17344
2017-11-24T12:05:01.035Z,15304
2017-11-24T12:05:29.970Z,14068
2017-11-24T12:05:58.566Z,13448
2017-11-24T12:06:27.082Z,13184
2017-11-24T12:06:55.414Z,13172
2017-11-24T12:07:24.080Z,13412
2017-11-24T12:07:52.306Z,13952
2017-11-24T12:08:20.941Z,14632
2017-11-24T12:08:49.917Z,15392
2017-11-24T12:09:18.549Z,16412
2017-11-24T12:09:47.183Z,17632
2017-11-24T12:10:15.991Z,18848
2017-11-24T12:10:44.668Z,20064
2017-11-24T12:11:13.274Z,21312
2017-11-24T12:11:41.803Z,23232
2017-11-24T12:12:10.524Z,27040
2017-11-24T12:12:39.184Z,28000
2017-11-24T12:13:07.605Z,27776
2017-11-24T12:13:36.140Z,46336
2017-11-24T12:14:04.754Z,81248
2017-11-24T12:14:33.418Z,34464
2017-11-24T12:15:01.955Z,20160
2017-11-24T12:15:30.449Z,16960
2017-11-24T12:15:59.097Z,15620
2017-11-24T12:16:27.512Z,15384
2017-11-24T12:16:56.026Z,15968
2017-11-24T12:17:30.305Z,17504
2017-11-24T12:18:00.286Z,23008
2017-11-24T12:18:28.903Z,34528
2017-11-24T12:18:57.686Z,41120
2017-11-24T12:19:26.105Z,30368
2017-11-24T12:19:54.632Z,33088
2017-11-24T12:20:23.289Z,43776
2017-11-24T12:20:51.912Z,61792
2017-11-24T12:21:20.433Z,32032
2017-11-24T12:21:48.976Z,30464
2017-11-24T12:22:17.265Z,34400
2017-11-24T12:22:45.789Z,40064
2017-11-24T12:23:14.236Z,28192
2017-11-24T12:23:42.837Z,22592
2017-11-24T12:24:11.375Z,20320
2017-11-24T12:24:39.762Z,19264
2017-11-24T12:25:08.135Z,18880
2017-11-24T12:25:36.662Z,18592
2017-11-24T12:26:05.102Z,18528
2017-11-24T12:26:33.784Z,18592
2017-11-24T12:27:02.417Z,18688
2017-11-24T12:27:31.011Z,19168
2017-11-24T12:27:59.621Z,19584
2017-11-24T12:28:27.931Z,20576
2017-11-24T12:28:56.337Z,38208
2017-11-24T12:29:24.970Z,28864
2017-11-24T12:29:53.583Z,25728
2017-11-24T12:30:22.080Z,22816
2017-11-24T12:30:50.689Z,22112
2017-11-24T12:31:18.973Z,20896
2017-11-24T12:31:47.644Z,23488
2017-11-24T12:32:16.191Z,24704
2017-11-24T12:32:44.711Z,24192
2017-11-24T12:33:13.214Z,27040
2017-11-24T12:33:41.820Z,46144
2017-11-24T12:34:10.244Z,65120
2017-11-24T12:34:38.936Z,83232
2017-11-24T12:35:08.169Z,86016
2017-11-24T12:35:36.629Z,76928
2017-11-24T12:36:05.177Z,84480
2017-11-24T12:36:33.755Z,80576
2017-11-24T12:37:02.434Z,80544
2017-11-24T12:37:31.034Z,79488
2017-11-24T12:37:59.527Z,80352
2017-11-24T12:38:28.690Z,82752
2017-11-24T12:38:57.328Z,83616
2017-11-24T12:39:25.821Z,86656
2017-11-24T12:39:54.423Z,86720
2017-11-24T12:40:23.188Z,87008
2017-11-24T12:40:51.708Z,83648
2017-11-24T12:41:20.067Z,86336
2017-11-24T12:41:49.421Z,89408
2017-11-24T12:42:17.892Z,90432
2017-11-24T12:42:46.989Z,88032
2017-11-24T12:43:15.539Z,85120
2017-11-24T12:43:44.060Z,80800
2017-11-24T12:44:12.621Z,78528
2017-11-24T12:44:40.988Z,79712
2017-11-24T12:45:17.601Z,72928
2017-11-24T12:45:46.006Z,75456
2017-11-24T12:46:14.632Z,72544
2017-11-24T12:46:43.131Z,23680
2017-11-24T12:47:11.752Z,63392
2017-11-24T12:47:40.312Z,78784
2017-11-24T12:48:09.657Z,72832
2017-11-24T12:48:38.270Z,55392
2017-11-24T12:49:06.696Z,42208
2017-11-24T12:49:35.305Z,45472
2017-11-24T12:50:04.052Z,28160
2017-11-24T12:50:32.350Z,47488
2017-11-24T12:51:00.843Z,75744
2017-11-24T12:51:29.405Z,66784
2017-11-24T12:51:57.996Z,75072
2017-11-24T12:52:26.625Z,73088
2017-11-24T12:52:55.086Z,69600
2017-11-24T12:53:23.403Z,64928
2017-11-24T12:53:51.837Z,69920
2017-11-24T12:54:21.153Z,75200
2017-11-24T12:54:50.048Z,33024
2017-11-24T12:55:18.617Z,61248
2017-11-24T12:55:47.273Z,71680
2017-11-24T12:56:15.894Z,59424
2017-11-24T12:56:44.562Z,34816
2017-11-24T12:57:13.235Z,35936
2017-11-24T12:57:41.482Z,59648
2017-11-24T12:58:10.175Z,81248
2017-11-24T12:58:38.788Z,82304
2017-11-24T12:59:08.106Z,69984
2017-11-24T12:59:36.622Z,63360
2017-11-24T13:00:04.956Z,55680
2017-11-24T13:00:33.588Z,44640
2017-11-24T13:01:02.102Z,37632
2017-11-24T13:01:30.601Z,30784
2017-11-24T13:01:59.491Z,24128
2017-11-24T13:02:28.399Z,21472
2017-11-24T13:02:57.011Z,19936
2017-11-24T13:03:25.427Z,18944
2017-11-24T13:03:53.962Z,18300
2017-11-24T13:04:22.276Z,18044
2017-11-24T13:04:50.828Z,17648
2017-11-24T13:05:19.473Z,17224
2017-11-24T13:05:47.861Z,16972
2017-11-24T13:06:16.465Z,16780
2017-11-24T13:06:45.159Z,16636
2017-11-24T13:07:13.614Z,16496
2017-11-24T13:07:42.130Z,16316
2017-11-24T13:08:10.733Z,16288
2017-11-24T13:08:39.258Z,16348
2017-11-24T13:09:07.909Z,16324
2017-11-24T13:09:36.531Z,16400
2017-11-24T13:10:04.954Z,16240
2017-11-24T13:10:33.369Z,16180
2017-11-24T13:11:01.983Z,16076
2017-11-24T13:11:30.400Z,15880
2017-11-24T13:11:58.993Z,15684
2017-11-24T13:12:27.507Z,15504
2017-11-24T13:12:56.050Z,15236
2017-11-24T13:13:24.937Z,14968
2017-11-24T13:13:53.467Z,14748
2017-11-24T13:14:22.182Z,14656
2017-11-24T13:14:50.794Z,14612
2017-11-24T13:15:19.319Z,14464
2017-11-24T13:15:47.539Z,14320
2017-11-24T13:16:16.059Z,14348
2017-11-24T13:16:44.570Z,14368
2017-11-24T13:17:13.120Z,14440
2017-11-24T13:17:41.692Z,14576
2017-11-24T13:18:10.304Z,14768
2017-11-24T13:18:38.775Z,14844
2017-11-24T13:19:07.270Z,14884
2017-11-24T13:19:35.906Z,15160
2017-11-24T13:20:04.273Z,15724
2017-11-24T13:20:32.805Z,16144
2017-11-24T13:21:01.397Z,16336
2017-11-24T13:21:29.990Z,16188
2017-11-24T13:21:58.525Z,16024
2017-11-24T13:22:26.909Z,15672
2017-11-24T13:22:55.266Z,15252
2017-11-24T13:23:23.918Z,14864
2017-11-24T13:23:52.560Z,14552
2017-11-24T13:24:20.909Z,14400
2017-11-24T13:24:49.225Z,14280
2017-11-24T13:25:17.772Z,14188
2017-11-24T13:25:46.548Z,13812
2017-11-24T13:26:15.194Z,13456
2017-11-24T13:26:43.845Z,13196
2017-11-24T13:27:12.680Z,13032
2017-11-24T13:27:41.377Z,12944
2017-11-24T13:28:09.832Z,12900
2017-11-24T13:28:38.364Z,12948
2017-11-24T13:29:07.231Z,13048
2017-11-24T13:29:35.927Z,13272
2017-11-24T13:30:04.579Z,13508
2017-11-24T13:30:33.133Z,14028
2017-11-24T13:31:01.751Z,14864
2017-11-24T13:31:30.181Z,15476
2017-11-24T13:31:58.755Z,15564
2017-11-24T13:32:27.271Z,14924
2017-11-24T13:32:55.775Z,14168
2017-11-24T13:33:24.225Z,13452
2017-11-24T13:33:52.802Z,13008
2017-11-24T13:34:21.355Z,12708
2017-11-24T13:34:49.915Z,12572
2017-11-24T13:35:18.527Z,12432
2017-11-24T13:35:47.043Z,12264
2017-11-24T13:36:15.646Z,12120
2017-11-24T13:36:44.616Z,12008
2017-11-24T13:37:13.165Z,11792
2017-11-24T13:37:41.842Z,11500
2017-11-24T13:38:10.368Z,11184
2017-11-24T13:38:39.001Z,11020
2017-11-24T13:39:07.331Z,10848
2017-11-24T13:39:35.747Z,10724
2017-11-24T13:40:04.305Z,10536
2017-11-24T13:40:32.773Z,10384
2017-11-24T13:41:01.344Z,10244
2017-11-24T13:41:29.929Z,10124
2017-11-24T13:41:58.477Z,10052
2017-11-24T13:42:27.445Z,9980
2017-11-24T13:42:56.047Z,9888
2017-11-24T13:43:24.605Z,9892
2017-11-24T13:43:53.091Z,9864
2017-11-24T13:44:21.680Z,9824
2017-11-24T13:44:50.218Z,9764
2017-11-24T13:45:18.879Z,9732
2017-11-24T13:46:01.950Z,9708
2017-11-24T13:46:30.477Z,9672
2017-11-24T13:46:59.137Z,9632
2017-11-24T13:47:27.679Z,9744
2017-11-24T13:47:56.107Z,9832
2017-11-24T13:48:24.623Z,9748
2017-11-24T13:48:53.143Z,9652
2017-11-24T13:49:21.837Z,9544
2017-11-24T13:49:50.290Z,9428
2017-11-24T13:50:18.733Z,9280
2017-11-24T13:50:47.266Z,9172
2017-11-24T13:51:20.749Z,9128
2017-11-24T13:51:48.932Z,9088
2017-11-24T13:52:17.537Z,9096
2017-11-24T13:52:46.312Z,9104
2017-11-24T13:53:15.051Z,9104
2017-11-24T13:53:43.889Z,9068
2017-11-24T13:54:12.479Z,9084
2017-11-24T13:54:41.023Z,9152
2017-11-24T13:55:09.496Z,9236
2017-11-24T13:55:37.944Z,9292
2017-11-24T13:56:06.575Z,9320
2017-11-24T13:56:35.077Z,9332
2017-11-24T13:57:03.486Z,9316
2017-11-24T13:57:46.574Z,9252
2017-11-24T13:58:15.596Z,9104
2017-11-24T13:58:44.101Z,8888
2017-11-24T13:59:12.699Z,8740
2017-11-24T13:59:41.201Z,8656
2017-11-24T14:00:09.759Z,8612
2017-11-24T14:00:38.426Z,8588
2017-11-24T14:01:06.977Z,8624
2017-11-24T14:01:35.442Z,8700
2017-11-24T14:02:04.085Z,8816
2017-11-24T14:02:32.736Z,8864
2017-11-24T14:03:01.403Z,8908
2017-11-24T14:03:29.848Z,8824
2017-11-24T14:03:59.216Z,8668
2017-11-24T14:04:27.751Z,8576
2017-11-24T14:04:55.949Z,8576
2017-11-24T14:05:24.591Z,8592
2017-11-24T14:05:53.192Z,8580
2017-11-24T14:06:21.592Z,8524
2017-11-24T14:06:50.360Z,8484
2017-11-24T14:07:19.012Z,8500
2017-11-24T14:07:47.354Z,8564
2017-11-24T14:08:15.756Z,8652
2017-11-24T14:08:44.394Z,8728
2017-11-24T14:09:12.911Z,8784
2017-11-24T14:09:41.536Z,8820
2017-11-24T14:10:09.970Z,8808
2017-11-24T14:10:38.563Z,8796
2017-11-24T14:11:07.482Z,8796
2017-11-24T14:11:35.935Z,8808
2017-11-24T14:12:04.541Z,8832
2017-11-24T14:12:33.351Z,8884
2017-11-24T14:13:01.906Z,8784
2017-11-24T14:13:30.316Z,9124
2017-11-24T14:13:58.738Z,9564
2017-11-24T14:14:27.187Z,9148
2017-11-24T14:14:55.733Z,8904
2017-11-24T14:15:24.307Z,8812
2017-11-24T14:15:52.923Z,8960
2017-11-24T14:16:21.465Z,9216
2017-11-24T14:16:50.168Z,9580
2017-11-24T14:17:18.760Z,9736
2017-11-24T14:17:47.422Z,9608
2017-11-24T14:18:15.829Z,9336
2017-11-24T14:18:44.438Z,9032
2017-11-24T14:19:12.986Z,8836
2017-11-24T14:19:41.501Z,8696
2017-11-24T14:20:10.071Z,8636
2017-11-24T14:20:38.710Z,8668
2017-11-24T14:21:07.385Z,8744
2017-11-24T14:21:35.918Z,8752
2017-11-24T14:22:04.466Z,8748
2017-11-24T14:22:33.008Z,8792
2017-11-24T14:23:01.614Z,8808
2017-11-24T14:23:30.215Z,8872
2017-11-24T14:23:58.806Z,8880
2017-11-24T14:24:27.305Z,8808
2017-11-24T14:24:55.921Z,8728
2017-11-24T14:25:24.380Z,8696
2017-11-24T14:25:52.823Z,8800
2017-11-24T14:26:21.427Z,8916
2017-11-24T14:26:49.977Z,8976
2017-11-24T14:27:18.495Z,8984
2017-11-24T14:27:47.120Z,8868
2017-11-24T14:28:15.723Z,8764
2017-11-24T14:28:44.276Z,8764
2017-11-24T14:29:12.836Z,8592
2017-11-24T14:29:42.185Z,8260
2017-11-24T14:30:10.716Z,8084
2017-11-24T14:30:39.217Z,7972
2017-11-24T14:31:07.749Z,8000
2017-11-24T14:31:36.167Z,7992
2017-11-24T14:32:04.708Z,7972
2017-11-24T14:32:33.124Z,7952
2017-11-24T14:33:01.649Z,7896
2017-11-24T14:33:30.072Z,7828
2017-11-24T14:33:58.674Z,7800
2017-11-24T14:34:27.189Z,7860
2017-11-24T14:34:55.686Z,7932
2017-11-24T14:35:25.138Z,7992
2017-11-24T14:35:53.720Z,8016
2017-11-24T14:36:22.202Z,8028
2017-11-24T14:36:52.877Z,7992
2017-11-24T14:37:23.322Z,7976
2017-11-24T14:37:51.859Z,7948
2017-11-24T14:38:20.587Z,7900
2017-11-24T14:38:49.318Z,7832
2017-11-24T14:39:17.632Z,7812
2017-11-24T14:39:46.216Z,7784
2017-11-24T14:40:14.599Z,7740
2017-11-24T14:40:43.158Z,7716
2017-11-24T14:41:11.661Z,7732
2017-11-24T14:41:39.976Z,7756
2017-11-24T14:42:08.460Z,7768
2017-11-24T14:42:37.100Z,7776
2017-11-24T14:43:05.617Z,7788
2017-11-24T14:43:34.050Z,7800
2017-11-24T14:44:02.620Z,7788
2017-11-24T14:44:31.500Z,7756
2017-11-24T14:45:00.210Z,7704
2017-11-24T14:45:28.733Z,7668
2017-11-24T14:45:57.357Z,7664
2017-11-24T14:46:25.856Z,7644
2017-11-24T14:46:54.277Z,7640
2017-11-24T14:47:22.894Z,7612
2017-11-24T14:47:51.414Z,7656
2017-11-24T14:48:19.935Z,7656
2017-11-24T14:48:48.561Z,7580
2017-11-24T14:49:16.981Z,7568
2017-11-24T14:49:45.425Z,7580
2017-11-24T14:50:13.916Z,7644
2017-11-24T14:50:42.514Z,7716
2017-11-24T14:51:11.141Z,7788
2017-11-24T14:51:39.574Z,7828
2017-11-24T14:52:08.143Z,7852
2017-11-24T14:52:36.764Z,7848
2017-11-24T14:53:05.425Z,7860
2017-11-24T14:53:34.339Z,7836
2017-11-24T14:54:03.025Z,7804
2017-11-24T14:54:31.676Z,7788
2017-11-24T14:55:00.244Z,7768
2017-11-24T14:55:28.778Z,7752
2017-11-24T14:55:57.355Z,7756
2017-11-24T14:56:25.796Z,7768
2017-11-24T14:56:54.435Z,7800
2017-11-24T14:57:23.063Z,7872
2017-11-24T14:57:51.784Z,7944
2017-11-24T14:58:20.199Z,8020
2017-11-24T14:58:48.846Z,8080
2017-11-24T14:59:17.519Z,8120
2017-11-24T14:59:46.149Z,8160
2017-11-24T15:00:14.536Z,8172
2017-11-24T15:00:43.689Z,8172
2017-11-24T15:01:12.578Z,8188
2017-11-24T15:01:41.143Z,8228
2017-11-24T15:02:09.795Z,8284
2017-11-24T15:02:38.449Z,8344
2017-11-24T15:03:07.101Z,8388
2017-11-24T15:03:36.227Z,8396
2017-11-24T15:04:04.836Z,8368
2017-11-24T15:04:33.404Z,8316
2017-11-24T15:05:01.939Z,8260
2017-11-24T15:05:30.647Z,8232
2017-11-24T15:05:59.097Z,8228
2017-11-24T15:06:27.811Z,8256
2017-11-24T15:06:56.374Z,8304
2017-11-24T15:07:24.803Z,8328
2017-11-24T15:07:53.478Z,8336
2017-11-24T15:08:36.500Z,8328
2017-11-24T15:09:05.133Z,8316
2017-11-24T15:09:33.826Z,8312
2017-11-24T15:10:02.536Z,8308
2017-11-24T15:10:34.351Z,8336
2017-11-24T15:11:02.755Z,8372
2017-11-24T15:11:31.323Z,8404
2017-11-24T15:11:59.737Z,8444
2017-11-24T15:12:28.115Z,8484
2017-11-24T15:12:56.532Z,8564
2017-11-24T15:13:25.080Z,8648
2017-11-24T15:13:53.528Z,8768
2017-11-24T15:14:22.176Z,8880
2017-11-24T15:14:50.720Z,8968
2017-11-24T15:15:19.340Z,9024
2017-11-24T15:15:47.896Z,9036
2017-11-24T15:16:16.341Z,9000
2017-11-24T15:16:45.000Z,8904
2017-11-24T15:17:13.587Z,8804
2017-11-24T15:17:42.247Z,8760
2017-11-24T15:18:10.897Z,8712
2017-11-24T15:18:39.388Z,8724
2017-11-24T15:19:07.807Z,8736
2017-11-24T15:19:36.449Z,8756
2017-11-24T15:20:05.335Z,8712
2017-11-24T15:20:34.129Z,8664
2017-11-24T15:21:02.762Z,8664
2017-11-24T15:21:31.227Z,8680
2017-11-24T15:21:59.573Z,8752
2017-11-24T15:22:28.616Z,8788
2017-11-24T15:22:57.230Z,8828
2017-11-24T15:23:25.819Z,8884
2017-11-24T15:23:54.257Z,8948
2017-11-24T15:24:22.908Z,9020
2017-11-24T15:24:51.801Z,9096
2017-11-24T15:25:20.436Z,9156
2017-11-24T15:25:48.884Z,9152
2017-11-24T15:26:17.453Z,9148
2017-11-24T15:26:46.067Z,9136
2017-11-24T15:27:14.680Z,9100
2017-11-24T15:27:43.620Z,9080
2017-11-24T15:28:12.294Z,9076
2017-11-24T15:28:41.204Z,9060
2017-11-24T15:29:14.218Z,9036
2017-11-24T15:29:42.459Z,9024
2017-11-24T15:30:10.832Z,9004
2017-11-24T15:30:40.569Z,9004
2017-11-24T15:31:09.615Z,9028
2017-11-24T15:31:38.416Z,9024
2017-11-24T15:32:07.005Z,8976
2017-11-24T15:32:35.705Z,8936
2017-11-24T15:33:04.374Z,8928
2017-11-24T15:33:33.408Z,8924
2017-11-24T15:34:01.878Z,8988
2017-11-24T15:34:30.616Z,9016
2017-11-24T15:34:58.994Z,9008
2017-11-24T15:35:27.800Z,9020
2017-11-24T15:35:56.355Z,9068
2017-11-24T15:36:25.261Z,9164
2017-11-24T15:36:54.061Z,9236
2017-11-24T15:37:22.809Z,9240
2017-11-24T15:37:51.423Z,9268
2017-11-24T15:38:20.267Z,9272
2017-11-24T15:38:49.120Z,9328
2017-11-24T15:39:18.070Z,9452
2017-11-24T15:39:46.674Z,9564
2017-11-24T15:40:15.831Z,9640
2017-11-24T15:40:44.510Z,9688
2017-11-24T15:41:13.685Z,9716
2017-11-24T15:41:42.311Z,9884
2017-11-24T15:42:11.162Z,9968
2017-11-24T15:42:40.411Z,10072
2017-11-24T15:43:09.101Z,10188
2017-11-24T15:43:38.262Z,10244
2017-11-24T15:44:06.614Z,10276
2017-11-24T15:44:49.581Z,10312
2017-11-24T15:45:18.005Z,10300
2017-11-24T15:45:47.026Z,10272
2017-11-24T15:46:15.595Z,10272
2017-11-24T15:46:45.238Z,10236
2017-11-24T15:47:13.927Z,10232
2017-11-24T15:47:43.558Z,10332
2017-11-24T15:48:12.144Z,10280
2017-11-24T15:48:40.582Z,10148
2017-11-24T15:49:09.071Z,10016
2017-11-24T15:49:37.507Z,9944
2017-11-24T15:50:06.274Z,9828
2017-11-24T15:50:34.801Z,9760
2017-11-24T15:51:03.264Z,9684
2017-11-24T15:51:31.765Z,9572
2017-11-24T15:52:00.324Z,9476
2017-11-24T15:52:29.044Z,9400
2017-11-24T15:52:58.051Z,9340
2017-11-24T15:53:27.318Z,9296
2017-11-24T15:53:55.831Z,9252
2017-11-24T15:54:24.323Z,9248
2017-11-24T15:54:52.875Z,9292
2017-11-24T15:55:21.450Z,9320
2017-11-24T15:55:50.223Z,9380
2017-11-24T15:56:19.078Z,9380
2017-11-24T15:56:48.020Z,9356
2017-11-24T15:57:16.445Z,9420
2017-11-24T15:57:45.376Z,9444
2017-11-24T15:58:14.117Z,9028
2017-11-24T15:58:43.840Z,8848
2017-11-24T15:59:12.496Z,9180
2017-11-24T15:59:41.709Z,9480
2017-11-24T16:00:11.987Z,9544
2017-11-24T16:00:41.409Z,9724
2017-11-24T16:01:09.851Z,9700
2017-11-24T16:01:38.801Z,9704
2017-11-24T16:02:07.556Z,9744
2017-11-24T16:02:36.642Z,9732
2017-11-24T16:03:05.015Z,9620
2017-11-24T16:03:33.694Z,9536
2017-11-24T16:04:02.325Z,9460
2017-11-24T16:04:30.879Z,9508
2017-11-24T16:04:59.654Z,9576
2017-11-24T16:05:28.317Z,9628
2017-11-24T16:05:56.837Z,9564
2017-11-24T16:06:26.603Z,9556
2017-11-24T16:06:55.218Z,9540
2017-11-24T16:07:23.873Z,9764
2017-11-24T16:07:52.568Z,10024
2017-11-24T16:08:21.128Z,10136
2017-11-24T16:08:49.699Z,10152
2017-11-24T16:09:47.336Z,10140
2017-11-24T16:10:16.706Z,10212
2017-11-24T16:10:45.725Z,10204
2017-11-24T16:11:14.347Z,10128
2017-11-24T16:11:43.573Z,10020
2017-11-24T16:12:12.277Z,9980
2017-11-24T16:12:41.237Z,10100
2017-11-24T16:13:10.006Z,10252
2017-11-24T16:13:39.195Z,10388